createdAt,value
2023-04-27T05:03:34.514Z,32.80
2023-04-27T05:04:35.428Z,33.08
2023-04-27T05:05:35.305Z,33.16
2023-04-27T05:06:35.336Z,33.11
2023-04-27T05:07:35.254Z,33.18
2023-04-27T05:08:34.248Z,33.16
2023-04-27T05:09:35.274Z,33.10
2023-04-27T05:10:35.213Z,33.10
2023-04-27T05:11:35.218Z,33.03
2023-04-27T05:12:34.192Z,33.09
2023-04-27T05:13:34.213Z,33.01
2023-04-27T05:14:35.196Z,33.04
2023-04-27T05:15:35.209Z,32.87
2023-04-27T05:16:35.376Z,32.73
2023-04-27T05:17:34.236Z,32.81
2023-04-27T05:18:34.157Z,32.73
2023-04-27T05:19:35.349Z,32.61
2023-04-27T05:20:34.245Z,32.79
2023-04-27T05:21:35.298Z,32.62
2023-04-27T05:22:34.369Z,32.62
2023-04-27T05:23:35.409Z,32.35
2023-04-27T05:24:35.402Z,32.40
2023-04-27T05:25:35.433Z,32.32
2023-04-27T05:26:34.476Z,32.31
2023-04-27T05:27:35.523Z,32.48
2023-04-27T05:28:35.546Z,32.52
2023-04-27T05:29:35.568Z,32.56
2023-04-27T05:30:35.590Z,32.60
2023-04-27T05:31:34.678Z,32.66
2023-04-27T05:32:35.687Z,32.74
2023-04-27T05:33:35.692Z,32.72
2023-04-27T05:34:34.714Z,32.74
2023-04-27T05:35:34.770Z,32.94
2023-04-27T05:36:34.766Z,33.01
2023-04-27T05:37:34.792Z,32.91
2023-04-27T05:38:34.815Z,32.94
2023-04-27T05:39:34.844Z,32.93
2023-04-27T05:40:34.849Z,32.97
2023-04-27T05:41:34.880Z,32.89
2023-04-27T05:42:35.900Z,32.93
2023-04-27T05:43:34.912Z,33.02
2023-04-27T05:44:35.901Z,33.03
2023-04-27T05:45:35.968Z,33.11
2023-04-27T05:46:38.551Z,33.13
2023-04-27T05:47:34.976Z,33.13
2023-04-27T05:48:34.911Z,33.13
2023-04-27T05:49:35.940Z,32.64
2023-04-27T05:50:35.901Z,32.74
2023-04-27T05:51:36.355Z,33.00
2023-04-27T05:52:37.633Z,33.37
2023-04-27T05:53:34.869Z,33.74
2023-04-27T05:54:35.866Z,34.12
2023-04-27T05:55:34.878Z,34.35
2023-04-27T05:56:35.853Z,34.81
2023-04-27T05:57:35.861Z,35.41
2023-04-27T05:58:35.836Z,35.32
2023-04-27T05:59:35.828Z,35.38
2023-04-27T06:00:35.838Z,35.83
2023-04-27T06:01:35.809Z,35.69
2023-04-27T06:02:34.932Z,36.03
2023-04-27T06:03:36.467Z,36.19
2023-04-27T06:04:35.809Z,36.40
2023-04-27T06:05:34.959Z,36.28
2023-04-27T06:06:35.770Z,36.49
2023-04-27T06:07:35.803Z,36.48
2023-04-27T06:08:34.768Z,36.38
2023-04-27T06:09:35.767Z,36.38
2023-04-27T06:10:34.742Z,36.46
2023-04-27T06:11:34.774Z,36.24
2023-04-27T06:12:34.736Z,35.98
2023-04-27T06:13:35.718Z,36.33
2023-04-27T06:14:34.721Z,36.19
2023-04-27T06:15:34.750Z,36.25
2023-04-27T06:16:34.826Z,36.14
2023-04-27T06:17:35.742Z,36.45
2023-04-27T06:18:34.674Z,36.21
2023-04-27T06:19:34.676Z,36.19
2023-04-27T06:20:34.670Z,36.18
2023-04-27T06:21:35.663Z,36.28
2023-04-27T06:22:35.659Z,36.40
2023-04-27T06:23:35.802Z,36.24
2023-04-27T06:24:35.655Z,36.45
2023-04-27T06:25:34.626Z,36.29
2023-04-27T06:26:35.669Z,36.61
2023-04-27T06:27:34.723Z,36.66
2023-04-27T06:28:35.781Z,36.55
2023-04-27T06:29:35.844Z,36.35
2023-04-27T06:30:37.560Z,36.61
2023-04-27T06:31:34.934Z,36.65
2023-04-27T06:32:35.917Z,37.16
2023-04-27T06:33:34.874Z,36.79
2023-04-27T06:34:34.857Z,37.02
2023-04-27T06:35:35.869Z,36.85
2023-04-27T06:36:35.862Z,37.37
2023-04-27T06:37:34.848Z,37.03
2023-04-27T06:38:34.853Z,37.09
2023-04-27T06:39:34.859Z,37.28
2023-04-27T06:40:34.823Z,37.22
2023-04-27T06:41:35.832Z,37.41
2023-04-27T06:42:35.820Z,36.96
2023-04-27T06:43:35.809Z,37.09
2023-04-27T06:44:35.813Z,37.19
2023-04-27T06:45:35.796Z,37.18
2023-04-27T06:46:35.860Z,36.98
2023-04-27T06:47:35.767Z,37.48
2023-04-27T06:48:35.787Z,37.82
2023-04-27T06:49:35.773Z,38.41
2023-04-27T06:50:35.786Z,38.43
2023-04-27T06:51:34.761Z,38.55
2023-04-27T06:52:35.756Z,39.29
2023-04-27T06:53:35.773Z,39.29
2023-04-27T06:54:35.021Z,39.07
2023-04-27T06:55:34.799Z,38.89
2023-04-27T06:56:35.720Z,38.81
2023-04-27T06:57:35.701Z,38.80
2023-04-27T06:58:35.724Z,38.64
2023-04-27T06:59:35.717Z,38.56
2023-04-27T07:00:35.682Z,38.45
2023-04-27T07:01:34.744Z,38.55
2023-04-27T07:02:35.774Z,38.39
2023-04-27T07:03:34.764Z,38.41
2023-04-27T07:04:35.667Z,38.33
2023-04-27T07:05:34.650Z,38.60
2023-04-27T07:06:35.643Z,38.54
2023-04-27T07:07:35.677Z,38.76
2023-04-27T07:08:35.625Z,38.84
2023-04-27T07:09:34.616Z,38.95
2023-04-27T07:10:35.620Z,38.83
2023-04-27T07:11:34.649Z,39.09
2023-04-27T07:12:35.602Z,38.86
2023-04-27T07:13:34.594Z,39.09
2023-04-27T07:14:34.590Z,39.23
2023-04-27T07:15:35.600Z,39.37
2023-04-27T07:16:35.700Z,39.76
2023-04-27T07:17:34.657Z,39.61
2023-04-27T07:18:35.632Z,39.67
2023-04-27T07:19:34.634Z,39.64
2023-04-27T07:20:35.616Z,39.55
2023-04-27T07:21:35.642Z,39.69
2023-04-27T07:22:34.640Z,39.66
2023-04-27T07:23:34.635Z,39.75
2023-04-27T07:24:34.732Z,39.88
2023-04-27T07:25:34.636Z,40.16
2023-04-27T07:26:35.651Z,39.86
2023-04-27T07:27:35.689Z,40.23
2023-04-27T07:28:34.631Z,40.30
2023-04-27T07:29:35.644Z,40.19
2023-04-27T07:30:35.658Z,40.34
2023-04-27T07:31:35.760Z,40.26
2023-04-27T07:32:35.749Z,40.37
2023-04-27T07:33:35.793Z,40.34
2023-04-27T07:34:49.012Z,40.56
2023-04-27T07:35:35.814Z,40.62
2023-04-27T07:36:35.811Z,40.52
2023-04-27T07:37:34.796Z,41.01
2023-04-27T07:38:35.788Z,40.87
2023-04-27T07:39:34.773Z,41.04
2023-04-27T07:40:35.776Z,40.99
2023-04-27T07:41:35.767Z,41.05
2023-04-27T07:42:35.868Z,41.54
2023-04-27T07:43:34.769Z,41.55
2023-04-27T07:44:35.758Z,41.49
2023-04-27T07:45:35.796Z,41.69
2023-04-27T07:46:35.746Z,41.22
2023-04-27T07:47:34.733Z,41.14
2023-04-27T07:48:34.714Z,41.31
2023-04-27T07:49:35.817Z,41.24
2023-04-27T07:50:35.706Z,40.31
2023-04-27T07:51:35.682Z,40.34
2023-04-27T07:52:34.697Z,39.83
2023-04-27T07:53:35.679Z,39.78
2023-04-27T07:54:34.682Z,39.67
2023-04-27T07:55:35.667Z,39.73
2023-04-27T07:56:34.698Z,39.29
2023-04-27T07:57:35.647Z,39.79
2023-04-27T07:58:34.627Z,39.39
2023-04-27T07:59:35.728Z,39.28
2023-04-27T08:00:35.630Z,39.50
2023-04-27T08:01:35.638Z,39.00
2023-04-27T08:02:35.830Z,39.23
2023-04-27T08:03:34.774Z,39.22
2023-04-27T08:04:36.040Z,39.43
2023-04-27T08:05:35.179Z,39.48
2023-04-27T08:06:36.265Z,39.50
2023-04-27T08:07:39.528Z,39.38
2023-04-27T08:08:35.600Z,38.88
2023-04-27T08:09:35.570Z,39.26
2023-04-27T08:10:35.580Z,39.31
2023-04-27T08:11:34.562Z,39.43
2023-04-27T08:12:35.553Z,39.54
2023-04-27T08:13:35.566Z,39.34
2023-04-27T08:14:35.531Z,39.41
2023-04-27T08:15:34.539Z,39.28
2023-04-27T08:16:34.547Z,39.16
2023-04-27T08:17:35.686Z,39.21
2023-04-27T08:18:35.569Z,39.10
2023-04-27T08:19:35.502Z,38.75
2023-04-27T08:20:35.473Z,38.88
2023-04-27T08:21:35.481Z,37.73
2023-04-27T08:22:35.554Z,37.54
2023-04-27T08:23:35.475Z,37.37
2023-04-27T08:24:35.467Z,37.70
2023-04-27T08:25:35.443Z,37.70
2023-04-27T08:26:35.550Z,37.92
2023-04-27T08:27:35.509Z,38.59
2023-04-27T08:28:35.450Z,38.01
2023-04-27T08:29:35.422Z,37.28
2023-04-27T08:30:35.418Z,38.08
2023-04-27T08:31:34.498Z,38.48
2023-04-27T08:32:34.468Z,38.44
2023-04-27T08:33:34.413Z,38.43
2023-04-27T08:34:35.395Z,38.20
2023-04-27T08:35:35.390Z,38.44
2023-04-27T08:36:35.379Z,38.79
2023-04-27T08:37:35.526Z,39.04
2023-04-27T08:38:34.353Z,38.98
2023-04-27T08:39:35.358Z,38.48
2023-04-27T08:40:35.344Z,38.90
2023-04-27T08:41:35.325Z,38.23
2023-04-27T08:42:34.339Z,39.00
2023-04-27T08:43:34.320Z,39.36
2023-04-27T08:44:34.313Z,38.11
2023-04-27T08:45:35.309Z,37.25
2023-04-27T08:46:35.296Z,37.63
2023-04-27T08:47:42.488Z,38.05
2023-04-27T08:48:35.285Z,37.70
2023-04-27T08:49:35.292Z,37.76
2023-04-27T08:50:35.257Z,37.86
2023-04-27T08:51:34.288Z,37.01
2023-04-27T08:52:35.261Z,36.58
2023-04-27T08:53:35.244Z,35.83
2023-04-27T08:54:35.241Z,36.87
2023-04-27T08:55:35.252Z,36.69
2023-04-27T08:56:34.231Z,36.75
2023-04-27T08:57:34.222Z,36.71
2023-04-27T08:58:35.224Z,36.91
2023-04-27T08:59:35.208Z,37.94
2023-04-27T09:00:35.207Z,38.72
2023-04-27T09:01:34.198Z,38.98
2023-04-27T09:02:35.448Z,38.93
2023-04-27T09:03:34.391Z,38.79
2023-04-27T09:04:34.296Z,38.61
2023-04-27T09:05:34.325Z,38.73
2023-04-27T09:06:35.579Z,38.72
2023-04-27T09:07:35.361Z,38.61
2023-04-27T09:08:34.418Z,38.61
2023-04-27T09:09:35.496Z,38.57
2023-04-27T09:10:35.511Z,38.48
2023-04-27T09:11:35.551Z,38.46
2023-04-27T09:12:34.590Z,38.43
2023-04-27T09:13:35.640Z,38.28
2023-04-27T09:14:35.654Z,38.15
2023-04-27T09:15:35.683Z,38.05
2023-04-27T09:16:34.807Z,38.03
2023-04-27T09:17:35.785Z,38.12
2023-04-27T09:18:35.778Z,38.06
2023-04-27T09:19:35.838Z,37.98
2023-04-27T09:20:35.842Z,37.93
2023-04-27T09:21:36.017Z,37.95
2023-04-27T09:22:34.880Z,37.83
2023-04-27T09:23:35.904Z,37.75
2023-04-27T09:24:34.937Z,37.58
2023-04-27T09:25:35.936Z,37.54
2023-04-27T09:26:35.978Z,37.39
2023-04-27T09:27:35.980Z,37.29
2023-04-27T09:28:35.988Z,37.30
2023-04-27T09:29:36.072Z,37.28
2023-04-27T09:30:36.009Z,37.26
2023-04-27T09:31:36.089Z,37.26
2023-04-27T09:32:35.049Z,37.11
2023-04-27T09:33:36.038Z,37.16
2023-04-27T09:34:36.050Z,37.16
2023-04-27T09:35:36.085Z,37.07
2023-04-27T09:36:35.059Z,36.98
2023-04-27T09:37:35.065Z,36.96
2023-04-27T09:38:36.074Z,36.95
2023-04-27T09:39:36.090Z,36.87
2023-04-27T09:40:35.095Z,36.86
2023-04-27T09:41:35.076Z,36.82
2023-04-27T09:42:35.086Z,36.81
2023-04-27T09:43:35.113Z,36.75
2023-04-27T09:44:36.127Z,36.71
2023-04-27T09:45:35.190Z,36.65
2023-04-27T09:46:36.143Z,36.66
2023-04-27T09:47:36.151Z,36.33
2023-04-27T09:48:35.129Z,36.38
2023-04-27T09:49:35.363Z,36.38
2023-04-27T09:50:37.401Z,36.46
2023-04-27T09:51:36.140Z,35.19
2023-04-27T09:52:36.105Z,35.55
2023-04-27T09:53:36.132Z,35.46
2023-04-27T09:54:35.104Z,35.68
2023-04-27T09:55:36.103Z,35.74
2023-04-27T09:56:35.099Z,35.81
2023-04-27T09:57:35.875Z,36.23
2023-04-27T09:58:35.109Z,36.11
2023-04-27T09:59:36.094Z,36.19
2023-04-27T10:00:36.054Z,36.17
2023-04-27T10:01:37.269Z,36.15
2023-04-27T10:02:46.205Z,35.65
2023-04-27T10:03:36.085Z,36.02
2023-04-27T10:04:35.217Z,36.11
2023-04-27T10:05:35.037Z,36.15
2023-04-27T10:06:36.009Z,36.17
2023-04-27T10:07:36.025Z,36.22
2023-04-27T10:08:36.022Z,36.29
2023-04-27T10:09:36.013Z,36.37
2023-04-27T10:10:35.009Z,36.50
2023-04-27T10:11:35.993Z,36.51
2023-04-27T10:12:36.002Z,36.51
2023-04-27T10:13:35.968Z,36.55
2023-04-27T10:14:35.965Z,36.60
2023-04-27T10:15:34.942Z,36.72
2023-04-27T10:16:36.009Z,36.83
2023-04-27T10:17:35.964Z,36.81
2023-04-27T10:18:37.977Z,36.90
2023-04-27T10:19:35.932Z,36.88
2023-04-27T10:20:34.922Z,36.90
2023-04-27T10:21:35.912Z,37.00
2023-04-27T10:22:36.076Z,37.03
2023-04-27T10:23:35.942Z,37.02
2023-04-27T10:24:35.906Z,36.98
2023-04-27T10:25:35.885Z,37.00
2023-04-27T10:26:37.964Z,37.27
2023-04-27T10:27:35.866Z,37.31
2023-04-27T10:28:34.881Z,37.07
2023-04-27T10:29:35.859Z,37.40
2023-04-27T10:30:35.894Z,37.41
2023-04-27T10:31:35.994Z,37.51
2023-04-27T10:32:35.918Z,37.44
2023-04-27T10:33:35.842Z,37.48
2023-04-27T10:34:35.843Z,37.64
2023-04-27T10:35:35.833Z,37.89
2023-04-27T10:36:35.810Z,37.67
2023-04-27T10:37:35.814Z,37.76
2023-04-27T10:38:34.811Z,37.97
2023-04-27T10:39:46.832Z,37.97
2023-04-27T10:40:35.810Z,38.22
2023-04-27T10:41:34.793Z,38.89
2023-04-27T10:42:34.792Z,37.59
2023-04-27T10:43:35.756Z,37.83
2023-04-27T10:44:35.757Z,37.82
2023-04-27T10:45:34.792Z,37.76
2023-04-27T10:46:35.849Z,37.41
2023-04-27T10:47:35.814Z,36.86
2023-04-27T10:48:35.729Z,37.50
2023-04-27T10:49:34.779Z,37.33
2023-04-27T10:50:35.728Z,37.34
2023-04-27T10:51:35.715Z,37.28
2023-04-27T10:52:35.712Z,37.25
2023-04-27T10:53:34.694Z,37.46
2023-04-27T10:54:35.687Z,37.10
2023-04-27T10:55:34.715Z,37.30
2023-04-27T10:56:34.686Z,37.21
2023-04-27T10:57:35.654Z,37.01
2023-04-27T10:58:48.300Z,36.94
2023-04-27T10:59:35.651Z,37.02
2023-04-27T11:00:35.649Z,37.18
2023-04-27T11:01:34.693Z,36.94
2023-04-27T11:02:35.654Z,36.91
2023-04-27T11:03:35.829Z,36.96
2023-04-27T11:04:35.662Z,36.86
2023-04-27T11:05:34.631Z,36.77
2023-04-27T11:06:35.617Z,36.74
2023-04-27T11:07:35.583Z,36.67
2023-04-27T11:08:35.590Z,36.88
2023-04-27T11:09:34.567Z,36.68
2023-04-27T11:10:35.633Z,36.94
2023-04-27T11:11:34.589Z,36.78
2023-04-27T11:12:34.874Z,36.80
2023-04-27T11:13:35.551Z,36.67
2023-04-27T11:14:35.695Z,36.65
2023-04-27T11:15:34.547Z,36.57
2023-04-27T11:16:34.602Z,36.90
2023-04-27T11:17:35.593Z,36.71
2023-04-27T11:18:34.526Z,37.09
2023-04-27T11:19:35.516Z,36.60
2023-04-27T11:20:35.510Z,36.94
2023-04-27T11:21:35.498Z,36.48
2023-04-27T11:22:35.479Z,36.62
2023-04-27T11:23:34.477Z,36.58
2023-04-27T11:24:34.473Z,36.90
2023-04-27T11:25:35.497Z,36.76
2023-04-27T11:26:34.549Z,36.70
2023-04-27T11:27:34.619Z,36.63
2023-04-27T11:28:35.624Z,36.49
2023-04-27T11:29:34.770Z,36.49
2023-04-27T11:30:34.722Z,36.58
2023-04-27T11:31:34.900Z,36.66
2023-04-27T11:32:35.839Z,36.60
2023-04-27T11:33:36.057Z,36.55
2023-04-27T11:34:35.928Z,36.28
2023-04-27T11:35:35.982Z,36.31
2023-04-27T11:36:36.032Z,36.49
2023-04-27T11:37:36.076Z,36.65
2023-04-27T11:38:36.184Z,36.55
2023-04-27T11:39:36.188Z,36.46
2023-04-27T11:40:36.259Z,36.54
2023-04-27T11:41:35.307Z,36.52
2023-04-27T11:42:35.376Z,36.51
2023-04-27T11:43:35.481Z,36.60
2023-04-27T11:44:36.483Z,36.52
2023-04-27T11:45:36.546Z,36.44
2023-04-27T11:46:36.727Z,36.59
2023-04-27T11:47:35.679Z,36.46
2023-04-27T11:48:35.703Z,36.29
2023-04-27T11:49:35.783Z,36.56
2023-04-27T11:50:36.850Z,36.27
2023-04-27T11:51:35.920Z,36.42
2023-04-27T11:52:36.984Z,36.43
2023-04-27T11:53:37.026Z,36.47
2023-04-27T11:54:37.080Z,36.28
2023-04-27T11:55:37.144Z,36.20
2023-04-27T11:56:36.217Z,36.22
2023-04-27T11:57:36.239Z,36.04
2023-04-27T11:58:37.318Z,36.41
2023-04-27T11:59:36.348Z,36.58
2023-04-27T12:00:37.412Z,36.38
2023-04-27T12:01:38.404Z,36.28
2023-04-27T12:02:37.718Z,36.31
2023-04-27T12:03:36.867Z,36.33
2023-04-27T12:04:36.850Z,36.45
2023-04-27T12:05:36.741Z,36.01
2023-04-27T12:06:37.833Z,36.23
2023-04-27T12:07:36.823Z,36.08
2023-04-27T12:08:37.871Z,36.26
2023-04-27T12:09:37.925Z,35.93
2023-04-27T12:10:37.997Z,36.43
2023-04-27T12:11:38.048Z,36.22
2023-04-27T12:12:37.106Z,35.92
2023-04-27T12:13:37.155Z,35.92
2023-04-27T12:14:37.236Z,35.87
2023-04-27T12:15:38.280Z,35.88
2023-04-27T12:16:38.379Z,36.23
2023-04-27T12:17:37.428Z,35.70
2023-04-27T12:18:38.463Z,36.22
2023-04-27T12:19:38.411Z,36.34
2023-04-27T12:20:37.567Z,35.71
2023-04-27T12:21:38.615Z,35.91
2023-04-27T12:22:38.635Z,36.27
2023-04-27T12:23:38.697Z,36.52
2023-04-27T12:24:37.751Z,35.94
2023-04-27T12:25:38.811Z,36.27
2023-04-27T12:26:38.856Z,36.07
2023-04-27T12:27:38.903Z,36.35
2023-04-27T12:28:37.949Z,36.38
2023-04-27T12:29:39.042Z,36.20
2023-04-27T12:30:39.133Z,36.60
2023-04-27T12:31:39.211Z,36.45
2023-04-27T12:32:39.183Z,36.58
2023-04-27T12:33:39.229Z,36.57
2023-04-27T12:34:38.267Z,36.44
2023-04-27T12:35:38.424Z,36.26
2023-04-27T12:36:39.404Z,36.47
2023-04-27T12:37:38.453Z,36.54
2023-04-27T12:38:39.498Z,36.53
2023-04-27T12:39:39.575Z,36.35
2023-04-27T12:40:38.650Z,36.27
2023-04-27T12:41:39.686Z,36.41
2023-04-27T12:42:39.740Z,36.51
2023-04-27T12:43:38.809Z,36.29
2023-04-27T12:44:39.865Z,36.54
2023-04-27T12:45:39.966Z,36.62
2023-04-27T12:46:39.050Z,36.56
2023-04-27T12:47:58.233Z,36.65
2023-04-27T12:48:40.050Z,36.73
2023-04-27T12:49:39.017Z,36.68
2023-04-27T12:50:40.013Z,36.74
2023-04-27T12:51:39.042Z,36.91
2023-04-27T12:52:39.032Z,36.74
2023-04-27T12:53:38.986Z,36.77
2023-04-27T12:54:38.958Z,36.80
2023-04-27T12:55:38.958Z,36.83
2023-04-27T12:56:39.965Z,36.76
2023-04-27T12:57:39.973Z,36.83
2023-04-27T12:58:38.946Z,36.78
2023-04-27T12:59:38.957Z,36.81
2023-04-27T13:00:38.923Z,36.68
2023-04-27T13:01:39.968Z,36.88
2023-04-27T13:02:40.003Z,36.76
2023-04-27T13:03:40.055Z,36.85
2023-04-27T13:04:40.062Z,36.85
2023-04-27T13:05:39.902Z,36.76
2023-04-27T13:06:38.886Z,36.88
2023-04-27T13:07:39.864Z,36.93
2023-04-27T13:08:39.899Z,36.89
2023-04-27T13:09:38.848Z,36.88
2023-04-27T13:10:38.847Z,36.89
2023-04-27T13:11:38.838Z,36.80
2023-04-27T13:12:39.836Z,36.87
2023-04-27T13:13:38.847Z,36.78
2023-04-27T13:14:39.813Z,36.81
2023-04-27T13:15:38.930Z,36.77
2023-04-27T13:16:38.889Z,36.76
2023-04-27T13:17:41.075Z,36.79
2023-04-27T13:18:38.846Z,36.73
2023-04-27T13:19:38.778Z,36.78
2023-04-27T13:20:39.773Z,36.68
2023-04-27T13:21:39.776Z,36.64
2023-04-27T13:22:39.764Z,36.69
2023-04-27T13:23:39.754Z,36.77
2023-04-27T13:24:39.750Z,36.71
2023-04-27T13:25:39.743Z,36.63
2023-04-27T13:26:39.752Z,36.74
2023-04-27T13:27:39.729Z,36.75
2023-04-27T13:28:38.726Z,36.72
2023-04-27T13:29:38.712Z,36.77
2023-04-27T13:30:39.708Z,36.76
2023-04-27T13:31:38.768Z,36.71
2023-04-27T13:32:38.718Z,36.69
2023-04-27T13:33:38.799Z,36.77
2023-04-27T13:34:39.667Z,36.77
2023-04-27T13:35:38.668Z,36.70
2023-04-27T13:36:38.653Z,36.78
2023-04-27T13:37:39.647Z,36.71
2023-04-27T13:38:39.661Z,36.77
2023-04-27T13:39:38.643Z,36.76
2023-04-27T13:40:38.625Z,36.70
2023-04-27T13:41:38.621Z,36.71
2023-04-27T13:42:39.617Z,36.76
2023-04-27T13:43:38.598Z,36.77
2023-04-27T13:44:38.646Z,36.73
2023-04-27T13:45:38.683Z,36.71
2023-04-27T13:46:39.824Z,36.71
2023-04-27T13:47:39.831Z,36.72
2023-04-27T13:48:39.876Z,36.66
2023-04-27T13:49:39.979Z,36.58
2023-04-27T13:50:39.983Z,36.57
2023-04-27T13:51:39.046Z,36.54
2023-04-27T13:52:39.098Z,36.65
2023-04-27T13:53:39.161Z,36.62
2023-04-27T13:54:39.232Z,36.52
2023-04-27T13:55:39.293Z,36.54
2023-04-27T13:56:40.353Z,36.57
2023-04-27T13:57:40.400Z,36.54
2023-04-27T13:58:39.455Z,36.57
2023-04-27T13:59:39.521Z,36.62
2023-04-27T14:00:39.605Z,36.58
2023-04-27T14:01:39.640Z,36.71
2023-04-27T14:02:40.740Z,36.58
2023-04-27T14:03:43.383Z,36.56
2023-04-27T14:04:40.798Z,36.59
2023-04-27T14:05:39.775Z,36.59
2023-04-27T14:06:40.744Z,36.60
2023-04-27T14:07:40.730Z,36.54
2023-04-27T14:08:40.721Z,36.56
2023-04-27T14:09:39.727Z,36.54
2023-04-27T14:10:40.711Z,36.53
2023-04-27T14:11:52.533Z,36.54
2023-04-27T14:12:40.696Z,36.53
2023-04-27T14:13:40.686Z,36.52
2023-04-27T14:14:40.668Z,36.51
2023-04-27T14:15:40.690Z,36.51
2023-04-27T14:16:39.723Z,36.51
2023-04-27T14:17:39.698Z,36.54
2023-04-27T14:18:39.659Z,36.48
2023-04-27T14:19:39.655Z,36.54
2023-04-27T14:20:39.642Z,36.52
2023-04-27T14:21:39.718Z,36.58
2023-04-27T14:22:39.759Z,36.56
2023-04-27T14:23:39.785Z,36.48
2023-04-27T14:24:39.862Z,36.54
2023-04-27T14:25:39.914Z,36.49
2023-04-27T14:26:40.979Z,36.53
2023-04-27T14:27:40.088Z,36.59
2023-04-27T14:28:40.108Z,36.61
2023-04-27T14:29:40.178Z,36.56
2023-04-27T14:30:40.230Z,36.58
2023-04-27T14:31:41.314Z,36.57
2023-04-27T14:32:40.381Z,36.54
2023-04-27T14:33:41.432Z,36.56
2023-04-27T14:34:41.477Z,36.56
2023-04-27T14:35:40.534Z,36.58
2023-04-27T14:36:41.626Z,36.53
2023-04-27T14:37:40.668Z,36.58
2023-04-27T14:38:40.715Z,36.60
2023-04-27T14:39:41.517Z,36.60
2023-04-27T14:40:41.845Z,36.59
2023-04-27T14:41:41.897Z,36.61
2023-04-27T14:42:41.959Z,36.64
2023-04-27T14:43:42.024Z,36.68
2023-04-27T14:44:42.073Z,36.63
2023-04-27T14:45:51.598Z,36.69
2023-04-27T14:46:42.212Z,36.60
2023-04-27T14:47:41.157Z,36.73
2023-04-27T14:48:41.151Z,36.69
2023-04-27T14:49:41.112Z,36.73
2023-04-27T14:50:41.102Z,36.66
2023-04-27T14:51:43.683Z,36.70
2023-04-27T14:52:42.344Z,36.64
2023-04-27T14:53:42.405Z,36.64
2023-04-27T14:54:42.459Z,36.69
2023-04-27T14:55:41.519Z,36.59
2023-04-27T14:56:42.568Z,36.69
2023-04-27T14:57:41.639Z,36.65
2023-04-27T14:58:42.677Z,36.64
2023-04-27T14:59:42.777Z,36.56
2023-04-27T15:00:41.806Z,36.69
2023-04-27T15:01:41.960Z,36.64
2023-04-27T15:02:43.007Z,36.67
2023-04-27T15:03:43.091Z,36.59
2023-04-27T15:04:42.112Z,36.60
2023-04-27T15:05:43.098Z,36.64
2023-04-27T15:06:42.155Z,36.58
2023-04-27T15:07:42.222Z,36.67
2023-04-27T15:08:42.306Z,36.60
2023-04-27T15:09:43.326Z,36.56
2023-04-27T15:10:43.397Z,36.64
2023-04-27T15:11:42.451Z,36.56
2023-04-27T15:12:42.519Z,36.63
2023-04-27T15:13:43.590Z,36.58
2023-04-27T15:14:42.666Z,36.63
2023-04-27T15:15:43.754Z,36.63
2023-04-27T15:16:43.771Z,36.58
2023-04-27T15:17:42.837Z,36.68
2023-04-27T15:18:42.859Z,36.56
2023-04-27T15:19:43.935Z,36.64
2023-04-27T15:20:44.699Z,36.55
2023-04-27T15:21:43.022Z,36.62
2023-04-27T15:22:44.088Z,36.61
2023-04-27T15:23:44.171Z,36.56
2023-04-27T15:24:44.209Z,36.63
2023-04-27T15:25:44.245Z,36.56
2023-04-27T15:26:43.304Z,36.58
2023-04-27T15:27:43.375Z,36.58
2023-04-27T15:28:43.444Z,36.63
2023-04-27T15:29:44.510Z,36.56
